sensor_id;sensor_type;location;lat;lon;timestamp;P1;durP1;ratioP1;P2;durP2;ratioP2
62353;SDS011;48391;49.184;2.418;2023-03-01T00:01:53;5.80;;;5.18;;
62353;SDS011;48391;49.184;2.418;2023-03-01T00:04:19;5.60;;;4.93;;
62353;SDS011;48391;49.184;2.418;2023-03-01T00:06:45;4.75;;;3.78;;
62353;SDS011;48391;49.184;2.418;2023-03-01T00:09:12;5.75;;;3.95;;
62353;SDS011;48391;49.184;2.418;2023-03-01T00:11:38;5.05;;;3.20;;
62353;SDS011;48391;49.184;2.418;2023-03-01T00:14:04;7.40;;;5.20;;
62353;SDS011;48391;49.184;2.418;2023-03-01T00:16:32;6.25;;;3.90;;
62353;SDS011;48391;49.184;2.418;2023-03-01T00:18:59;4.70;;;3.53;;
62353;SDS011;48391;49.184;2.418;2023-03-01T00:21:25;5.65;;;4.20;;
62353;SDS011;48391;49.184;2.418;2023-03-01T00:23:51;4.05;;;3.38;;
62353;SDS011;48391;49.184;2.418;2023-03-01T00:26:18;7.00;;;3.38;;
62353;SDS011;48391;49.184;2.418;2023-03-01T00:28:44;2.90;;;2.63;;
62353;SDS011;48391;49.184;2.418;2023-03-01T00:31:12;2.55;;;2.15;;
62353;SDS011;48391;49.184;2.418;2023-03-01T00:33:39;3.13;;;2.13;;
62353;SDS011;48391;49.184;2.418;2023-03-01T00:36:05;3.28;;;2.97;;
62353;SDS011;48391;49.184;2.418;2023-03-01T00:38:34;4.55;;;3.05;;
62353;SDS011;48391;49.184;2.418;2023-03-01T00:41:05;4.72;;;3.13;;
62353;SDS011;48391;49.184;2.418;2023-03-01T00:43:31;3.60;;;2.75;;
62353;SDS011;48391;49.184;2.418;2023-03-01T00:46:01;4.53;;;2.75;;
62353;SDS011;48391;49.184;2.418;2023-03-01T00:48:28;4.53;;;2.95;;
62353;SDS011;48391;49.184;2.418;2023-03-01T00:50:54;5.78;;;3.35;;
62353;SDS011;48391;49.184;2.418;2023-03-01T00:53:20;5.95;;;3.00;;
62353;SDS011;48391;49.184;2.418;2023-03-01T00:55:46;4.60;;;3.00;;
62353;SDS011;48391;49.184;2.418;2023-03-01T00:58:12;4.45;;;2.40;;
62353;SDS011;48391;49.184;2.418;2023-03-01T01:00:38;3.03;;;2.70;;
62353;SDS011;48391;49.184;2.418;2023-03-01T01:03:04;4.22;;;3.22;;
62353;SDS011;48391;49.184;2.418;2023-03-01T01:05:30;5.82;;;4.35;;
62353;SDS011;48391;49.184;2.418;2023-03-01T01:07:56;6.72;;;3.95;;
62353;SDS011;48391;49.184;2.418;2023-03-01T01:10:22;5.13;;;4.43;;
62353;SDS011;48391;49.184;2.418;2023-03-01T01:12:48;8.70;;;4.45;;
62353;SDS011;48391;49.184;2.418;2023-03-01T01:15:14;6.30;;;4.25;;
62353;SDS011;48391;49.184;2.418;2023-03-01T01:17:41;3.38;;;3.03;;
62353;SDS011;48391;49.184;2.418;2023-03-01T01:20:08;5.68;;;3.38;;
62353;SDS011;48391;49.184;2.418;2023-03-01T01:22:34;5.20;;;3.42;;
62353;SDS011;48391;49.184;2.418;2023-03-01T01:25:00;5.05;;;2.92;;
62353;SDS011;48391;49.184;2.418;2023-03-01T01:27:26;4.47;;;2.90;;
62353;SDS011;48391;49.184;2.418;2023-03-01T01:29:52;5.25;;;3.35;;
62353;SDS011;48391;49.184;2.418;2023-03-01T01:32:18;4.45;;;3.15;;
62353;SDS011;48391;49.184;2.418;2023-03-01T01:34:45;5.57;;;3.42;;
62353;SDS011;48391;49.184;2.418;2023-03-01T01:37:11;6.70;;;3.67;;
62353;SDS011;48391;49.184;2.418;2023-03-01T01:39:37;8.77;;;5.03;;
62353;SDS011;48391;49.184;2.418;2023-03-01T01:42:03;5.40;;;3.95;;
62353;SDS011;48391;49.184;2.418;2023-03-01T01:44:29;6.38;;;3.88;;
62353;SDS011;48391;49.184;2.418;2023-03-01T01:52:39;6.22;;;3.67;;
62353;SDS011;48391;49.184;2.418;2023-03-01T01:55:20;5.03;;;3.53;;
62353;SDS011;48391;49.184;2.418;2023-03-01T02:00:07;9.57;;;5.18;;
62353;SDS011;48391;49.184;2.418;2023-03-01T02:02:34;7.78;;;5.85;;
62353;SDS011;48391;49.184;2.418;2023-03-01T02:05:06;7.07;;;5.03;;
62353;SDS011;48391;49.184;2.418;2023-03-01T02:10:11;4.63;;;3.70;;
62353;SDS011;48391;49.184;2.418;2023-03-01T02:12:37;5.38;;;4.43;;
62353;SDS011;48391;49.184;2.418;2023-03-01T02:15:04;4.35;;;3.25;;
62353;SDS011;48391;49.184;2.418;2023-03-01T02:17:30;5.97;;;3.75;;
62353;SDS011;48391;49.184;2.418;2023-03-01T02:22:32;5.80;;;4.40;;
62353;SDS011;48391;49.184;2.418;2023-03-01T02:30:15;7.32;;;4.05;;
62353;SDS011;48391;49.184;2.418;2023-03-01T02:32:42;4.03;;;3.15;;
62353;SDS011;48391;49.184;2.418;2023-03-01T02:35:12;4.75;;;4.05;;
62353;SDS011;48391;49.184;2.418;2023-03-01T02:37:40;5.15;;;3.42;;
62353;SDS011;48391;49.184;2.418;2023-03-01T02:40:08;6.13;;;4.53;;
62353;SDS011;48391;49.184;2.418;2023-03-01T02:42:58;9.40;;;4.63;;
62353;SDS011;48391;49.184;2.418;2023-03-01T02:45:24;6.40;;;4.40;;
62353;SDS011;48391;49.184;2.418;2023-03-01T02:47:53;4.82;;;3.85;;
62353;SDS011;48391;49.184;2.418;2023-03-01T02:53:02;4.90;;;3.92;;
62353;SDS011;48391;49.184;2.418;2023-03-01T02:55:31;4.88;;;3.40;;
62353;SDS011;48391;49.184;2.418;2023-03-01T02:57:57;6.90;;;4.20;;
62353;SDS011;48391;49.184;2.418;2023-03-01T03:00:28;5.43;;;4.30;;
62353;SDS011;48391;49.184;2.418;2023-03-01T03:02:55;6.22;;;3.30;;
62353;SDS011;48391;49.184;2.418;2023-03-01T03:05:25;4.15;;;3.25;;
62353;SDS011;48391;49.184;2.418;2023-03-01T03:07:52;4.68;;;3.20;;
62353;SDS011;48391;49.184;2.418;2023-03-01T03:10:28;4.97;;;4.10;;
62353;SDS011;48391;49.184;2.418;2023-03-01T03:12:56;4.60;;;3.30;;
62353;SDS011;48391;49.184;2.418;2023-03-01T03:15:22;5.80;;;4.20;;
62353;SDS011;48391;49.184;2.418;2023-03-01T03:17:49;4.22;;;3.60;;
62353;SDS011;48391;49.184;2.418;2023-03-01T03:20:16;5.13;;;4.05;;
62353;SDS011;48391;49.184;2.418;2023-03-01T03:22:47;3.88;;;3.35;;
62353;SDS011;48391;49.184;2.418;2023-03-01T03:25:14;4.07;;;3.17;;
62353;SDS011;48391;49.184;2.418;2023-03-01T03:27:41;4.10;;;3.05;;
62353;SDS011;48391;49.184;2.418;2023-03-01T03:30:08;5.07;;;3.30;;
62353;SDS011;48391;49.184;2.418;2023-03-01T03:32:38;5.63;;;4.07;;
62353;SDS011;48391;49.184;2.418;2023-03-01T03:35:05;5.45;;;3.28;;
62353;SDS011;48391;49.184;2.418;2023-03-01T03:37:38;3.50;;;2.57;;
62353;SDS011;48391;49.184;2.418;2023-03-01T03:40:23;3.10;;;2.67;;
62353;SDS011;48391;49.184;2.418;2023-03-01T03:42:49;4.88;;;3.55;;
62353;SDS011;48391;49.184;2.418;2023-03-01T03:45:18;5.05;;;3.95;;
62353;SDS011;48391;49.184;2.418;2023-03-01T03:47:44;5.18;;;3.97;;
62353;SDS011;48391;49.184;2.418;2023-03-01T03:50:11;5.63;;;4.03;;
62353;SDS011;48391;49.184;2.418;2023-03-01T03:52:37;5.47;;;4.15;;
62353;SDS011;48391;49.184;2.418;2023-03-01T03:55:04;5.57;;;4.03;;
62353;SDS011;48391;49.184;2.418;2023-03-01T03:57:34;5.30;;;3.80;;
62353;SDS011;48391;49.184;2.418;2023-03-01T04:00:00;4.25;;;3.63;;
62353;SDS011;48391;49.184;2.418;2023-03-01T04:02:28;5.30;;;3.65;;
62353;SDS011;48391;49.184;2.418;2023-03-01T04:04:54;5.50;;;3.47;;
62353;SDS011;48391;49.184;2.418;2023-03-01T04:07:20;5.72;;;3.80;;
62353;SDS011;48391;49.184;2.418;2023-03-01T04:09:46;4.85;;;3.60;;
62353;SDS011;48391;49.184;2.418;2023-03-01T04:12:12;3.80;;;2.88;;
62353;SDS011;48391;49.184;2.418;2023-03-01T04:14:39;4.45;;;3.72;;
62353;SDS011;48391;49.184;2.418;2023-03-01T04:17:05;3.47;;;2.83;;
62353;SDS011;48391;49.184;2.418;2023-03-01T04:19:32;3.70;;;2.85;;
62353;SDS011;48391;49.184;2.418;2023-03-01T04:22:04;4.43;;;3.20;;
62353;SDS011;48391;49.184;2.418;2023-03-01T04:24:34;4.65;;;3.13;;
62353;SDS011;48391;49.184;2.418;2023-03-01T04:27:00;4.85;;;3.17;;
62353;SDS011;48391;49.184;2.418;2023-03-01T04:29:26;3.28;;;2.72;;
62353;SDS011;48391;49.184;2.418;2023-03-01T04:31:52;5.60;;;4.03;;
62353;SDS011;48391;49.184;2.418;2023-03-01T04:34:18;5.35;;;3.60;;
62353;SDS011;48391;49.184;2.418;2023-03-01T04:36:44;3.78;;;2.85;;
62353;SDS011;48391;49.184;2.418;2023-03-01T04:39:10;4.22;;;3.28;;
62353;SDS011;48391;49.184;2.418;2023-03-01T04:41:39;3.53;;;3.00;;
62353;SDS011;48391;49.184;2.418;2023-03-01T04:44:06;4.80;;;3.25;;
62353;SDS011;48391;49.184;2.418;2023-03-01T04:46:34;3.92;;;3.25;;
62353;SDS011;48391;49.184;2.418;2023-03-01T04:49:00;5.07;;;3.65;;
62353;SDS011;48391;49.184;2.418;2023-03-01T04:51:26;3.60;;;3.15;;
62353;SDS011;48391;49.184;2.418;2023-03-01T04:53:52;3.88;;;3.35;;
62353;SDS011;48391;49.184;2.418;2023-03-01T04:56:18;4.28;;;2.72;;
62353;SDS011;48391;49.184;2.418;2023-03-01T04:58:45;4.15;;;3.75;;
62353;SDS011;48391;49.184;2.418;2023-03-01T05:03:40;3.38;;;2.88;;
62353;SDS011;48391;49.184;2.418;2023-03-01T05:06:07;7.47;;;4.97;;
62353;SDS011;48391;49.184;2.418;2023-03-01T05:08:33;4.63;;;4.15;;
62353;SDS011;48391;49.184;2.418;2023-03-01T05:11:02;5.43;;;3.40;;
62353;SDS011;48391;49.184;2.418;2023-03-01T05:13:28;4.80;;;3.45;;
62353;SDS011;48391;49.184;2.418;2023-03-01T05:15:58;4.78;;;3.58;;
62353;SDS011;48391;49.184;2.418;2023-03-01T05:18:25;4.72;;;3.92;;
62353;SDS011;48391;49.184;2.418;2023-03-01T05:20:52;3.85;;;3.15;;
62353;SDS011;48391;49.184;2.418;2023-03-01T05:23:21;3.63;;;2.92;;
62353;SDS011;48391;49.184;2.418;2023-03-01T05:25:47;4.13;;;2.97;;
62353;SDS011;48391;49.184;2.418;2023-03-01T05:28:14;4.53;;;3.22;;
62353;SDS011;48391;49.184;2.418;2023-03-01T05:30:41;5.60;;;4.20;;
62353;SDS011;48391;49.184;2.418;2023-03-01T05:33:08;6.88;;;3.97;;
62353;SDS011;48391;49.184;2.418;2023-03-01T05:35:41;3.97;;;3.35;;
62353;SDS011;48391;49.184;2.418;2023-03-01T05:38:08;6.00;;;4.15;;
62353;SDS011;48391;49.184;2.418;2023-03-01T05:40:34;4.15;;;3.60;;
62353;SDS011;48391;49.184;2.418;2023-03-01T05:43:00;6.10;;;4.15;;
62353;SDS011;48391;49.184;2.418;2023-03-01T05:45:27;5.05;;;3.67;;
62353;SDS011;48391;49.184;2.418;2023-03-01T05:47:53;4.85;;;3.15;;
62353;SDS011;48391;49.184;2.418;2023-03-01T05:52:46;6.80;;;4.82;;
62353;SDS011;48391;49.184;2.418;2023-03-01T05:55:13;7.40;;;4.43;;
62353;SDS011;48391;49.184;2.418;2023-03-01T05:57:39;4.72;;;3.97;;
62353;SDS011;48391;49.184;2.418;2023-03-01T06:00:06;5.35;;;4.35;;
62353;SDS011;48391;49.184;2.418;2023-03-01T06:02:32;9.02;;;6.82;;
62353;SDS011;48391;49.184;2.418;2023-03-01T06:04:58;9.02;;;5.90;;
62353;SDS011;48391;49.184;2.418;2023-03-01T06:07:24;4.85;;;4.40;;
62353;SDS011;48391;49.184;2.418;2023-03-01T06:09:50;6.50;;;5.28;;
62353;SDS011;48391;49.184;2.418;2023-03-01T06:12:16;5.70;;;4.07;;
62353;SDS011;48391;49.184;2.418;2023-03-01T06:14:42;9.10;;;5.40;;
62353;SDS011;48391;49.184;2.418;2023-03-01T06:17:08;6.80;;;4.63;;
62353;SDS011;48391;49.184;2.418;2023-03-01T06:19:34;8.23;;;5.20;;
62353;SDS011;48391;49.184;2.418;2023-03-01T06:22:00;8.43;;;4.60;;
62353;SDS011;48391;49.184;2.418;2023-03-01T06:24:26;5.90;;;5.25;;
62353;SDS011;48391;49.184;2.418;2023-03-01T06:26:53;7.25;;;5.55;;
62353;SDS011;48391;49.184;2.418;2023-03-01T06:29:20;8.63;;;5.80;;
62353;SDS011;48391;49.184;2.418;2023-03-01T06:31:47;7.90;;;5.28;;
62353;SDS011;48391;49.184;2.418;2023-03-01T06:34:13;8.38;;;5.90;;
62353;SDS011;48391;49.184;2.418;2023-03-01T06:36:40;7.57;;;4.53;;
62353;SDS011;48391;49.184;2.418;2023-03-01T06:39:06;8.65;;;5.47;;
62353;SDS011;48391;49.184;2.418;2023-03-01T06:41:32;7.50;;;5.25;;
62353;SDS011;48391;49.184;2.418;2023-03-01T06:43:59;10.43;;;7.15;;
62353;SDS011;48391;49.184;2.418;2023-03-01T06:46:25;9.32;;;6.38;;
62353;SDS011;48391;49.184;2.418;2023-03-01T06:48:51;11.35;;;6.80;;
62353;SDS011;48391;49.184;2.418;2023-03-01T06:51:17;8.77;;;6.10;;
62353;SDS011;48391;49.184;2.418;2023-03-01T06:53:45;9.63;;;6.13;;
62353;SDS011;48391;49.184;2.418;2023-03-01T06:56:11;7.45;;;5.18;;
62353;SDS011;48391;49.184;2.418;2023-03-01T06:58:37;8.90;;;6.20;;
62353;SDS011;48391;49.184;2.418;2023-03-01T07:01:07;5.75;;;4.70;;
62353;SDS011;48391;49.184;2.418;2023-03-01T07:03:33;10.40;;;5.53;;
62353;SDS011;48391;49.184;2.418;2023-03-01T07:05:59;8.40;;;5.10;;
62353;SDS011;48391;49.184;2.418;2023-03-01T07:08:25;5.70;;;3.72;;
62353;SDS011;48391;49.184;2.418;2023-03-01T07:10:58;4.70;;;3.67;;
62353;SDS011;48391;49.184;2.418;2023-03-01T07:13:24;5.68;;;4.05;;
62353;SDS011;48391;49.184;2.418;2023-03-01T07:15:50;5.28;;;3.83;;
62353;SDS011;48391;49.184;2.418;2023-03-01T07:18:16;8.05;;;5.30;;
62353;SDS011;48391;49.184;2.418;2023-03-01T07:20:42;10.52;;;6.43;;
62353;SDS011;48391;49.184;2.418;2023-03-01T07:23:08;9.40;;;6.32;;
62353;SDS011;48391;49.184;2.418;2023-03-01T07:25:34;12.10;;;9.07;;
62353;SDS011;48391;49.184;2.418;2023-03-01T07:28:00;11.05;;;7.90;;
62353;SDS011;48391;49.184;2.418;2023-03-01T07:30:27;15.02;;;10.80;;
62353;SDS011;48391;49.184;2.418;2023-03-01T07:32:54;12.43;;;8.50;;
62353;SDS011;48391;49.184;2.418;2023-03-01T07:35:20;10.70;;;7.47;;
62353;SDS011;48391;49.184;2.418;2023-03-01T07:37:46;11.85;;;7.93;;
62353;SDS011;48391;49.184;2.418;2023-03-01T07:40:12;13.85;;;8.98;;
62353;SDS011;48391;49.184;2.418;2023-03-01T07:42:39;15.00;;;9.80;;
62353;SDS011;48391;49.184;2.418;2023-03-01T07:45:05;14.48;;;9.68;;
62353;SDS011;48391;49.184;2.418;2023-03-01T07:47:31;15.43;;;10.57;;
62353;SDS011;48391;49.184;2.418;2023-03-01T07:49:57;14.90;;;10.32;;
62353;SDS011;48391;49.184;2.418;2023-03-01T07:52:23;19.42;;;12.65;;
62353;SDS011;48391;49.184;2.418;2023-03-01T07:54:50;22.65;;;12.88;;
62353;SDS011;48391;49.184;2.418;2023-03-01T07:57:16;18.75;;;11.18;;
62353;SDS011;48391;49.184;2.418;2023-03-01T07:59:42;19.25;;;13.43;;
62353;SDS011;48391;49.184;2.418;2023-03-01T08:02:08;18.95;;;13.43;;
62353;SDS011;48391;49.184;2.418;2023-03-01T08:04:34;18.67;;;12.55;;
62353;SDS011;48391;49.184;2.418;2023-03-01T08:07:00;19.63;;;13.63;;
62353;SDS011;48391;49.184;2.418;2023-03-01T08:09:26;18.50;;;12.23;;
62353;SDS011;48391;49.184;2.418;2023-03-01T08:11:52;16.70;;;12.32;;
62353;SDS011;48391;49.184;2.418;2023-03-01T08:14:19;22.15;;;13.52;;
62353;SDS011;48391;49.184;2.418;2023-03-01T08:16:47;22.70;;;13.68;;
62353;SDS011;48391;49.184;2.418;2023-03-01T08:19:14;18.88;;;12.68;;
62353;SDS011;48391;49.184;2.418;2023-03-01T08:21:40;20.40;;;13.73;;
62353;SDS011;48391;49.184;2.418;2023-03-01T08:24:06;20.60;;;12.68;;
62353;SDS011;48391;49.184;2.418;2023-03-01T08:26:33;24.10;;;13.43;;
62353;SDS011;48391;49.184;2.418;2023-03-01T08:28:59;16.63;;;11.95;;
62353;SDS011;48391;49.184;2.418;2023-03-01T08:31:27;25.98;;;13.90;;
62353;SDS011;48391;49.184;2.418;2023-03-01T08:33:54;18.13;;;13.40;;
62353;SDS011;48391;49.184;2.418;2023-03-01T08:36:28;20.05;;;11.88;;
62353;SDS011;48391;49.184;2.418;2023-03-01T08:38:54;16.83;;;12.00;;
62353;SDS011;48391;49.184;2.418;2023-03-01T08:41:20;20.15;;;13.50;;
62353;SDS011;48391;49.184;2.418;2023-03-01T08:43:46;20.52;;;13.35;;
62353;SDS011;48391;49.184;2.418;2023-03-01T08:46:13;20.65;;;13.20;;
62353;SDS011;48391;49.184;2.418;2023-03-01T08:48:39;21.58;;;13.65;;
62353;SDS011;48391;49.184;2.418;2023-03-01T08:51:12;27.13;;;14.68;;
62353;SDS011;48391;49.184;2.418;2023-03-01T08:53:38;20.13;;;13.85;;
62353;SDS011;48391;49.184;2.418;2023-03-01T08:56:05;20.13;;;14.63;;
62353;SDS011;48391;49.184;2.418;2023-03-01T08:58:31;15.98;;;12.93;;
62353;SDS011;48391;49.184;2.418;2023-03-01T09:00:57;18.67;;;12.65;;
62353;SDS011;48391;49.184;2.418;2023-03-01T09:03:24;19.05;;;14.27;;
62353;SDS011;48391;49.184;2.418;2023-03-01T09:05:50;21.88;;;12.93;;
62353;SDS011;48391;49.184;2.418;2023-03-01T09:08:17;16.50;;;12.32;;
62353;SDS011;48391;49.184;2.418;2023-03-01T09:10:43;20.80;;;12.82;;
62353;SDS011;48391;49.184;2.418;2023-03-01T09:13:09;21.27;;;14.05;;
62353;SDS011;48391;49.184;2.418;2023-03-01T09:15:38;18.70;;;14.18;;
62353;SDS011;48391;49.184;2.418;2023-03-01T09:18:05;18.25;;;13.82;;
62353;SDS011;48391;49.184;2.418;2023-03-01T09:20:31;16.05;;;11.38;;
62353;SDS011;48391;49.184;2.418;2023-03-01T09:22:57;18.63;;;13.13;;
62353;SDS011;48391;49.184;2.418;2023-03-01T09:25:24;22.63;;;14.32;;
62353;SDS011;48391;49.184;2.418;2023-03-01T09:27:51;24.70;;;15.88;;
62353;SDS011;48391;49.184;2.418;2023-03-01T09:30:17;20.17;;;14.55;;
62353;SDS011;48391;49.184;2.418;2023-03-01T09:32:43;19.48;;;13.07;;
62353;SDS011;48391;49.184;2.418;2023-03-01T09:35:10;15.55;;;12.48;;
62353;SDS011;48391;49.184;2.418;2023-03-01T09:37:36;21.48;;;14.63;;
62353;SDS011;48391;49.184;2.418;2023-03-01T09:40:06;19.23;;;13.43;;
62353;SDS011;48391;49.184;2.418;2023-03-01T09:42:33;18.35;;;12.80;;
62353;SDS011;48391;49.184;2.418;2023-03-01T09:45:06;18.92;;;12.77;;
62353;SDS011;48391;49.184;2.418;2023-03-01T09:47:36;20.05;;;12.43;;
62353;SDS011;48391;49.184;2.418;2023-03-01T09:50:16;21.00;;;12.90;;
62353;SDS011;48391;49.184;2.418;2023-03-01T09:55:36;17.05;;;12.73;;
62353;SDS011;48391;49.184;2.418;2023-03-01T09:58:18;87.15;;;24.23;;
62353;SDS011;48391;49.184;2.418;2023-03-01T10:00:49;24.77;;;13.73;;
62353;SDS011;48391;49.184;2.418;2023-03-01T10:15:54;16.88;;;11.27;;
62353;SDS011;48391;49.184;2.418;2023-03-01T10:18:23;17.70;;;12.23;;
62353;SDS011;48391;49.184;2.418;2023-03-01T10:20:58;17.25;;;11.77;;
62353;SDS011;48391;49.184;2.418;2023-03-01T10:23:26;48.95;;;16.58;;
62353;SDS011;48391;49.184;2.418;2023-03-01T10:30:47;19.92;;;14.13;;
62353;SDS011;48391;49.184;2.418;2023-03-01T10:36:16;27.48;;;14.80;;
62353;SDS011;48391;49.184;2.418;2023-03-01T10:38:50;157.93;;;30.98;;
62353;SDS011;48391;49.184;2.418;2023-03-01T10:41:17;18.33;;;12.27;;
62353;SDS011;48391;49.184;2.418;2023-03-01T10:49:07;17.40;;;11.45;;
62353;SDS011;48391;49.184;2.418;2023-03-01T10:51:39;16.13;;;10.85;;
62353;SDS011;48391;49.184;2.418;2023-03-01T10:54:05;13.10;;;11.35;;
62353;SDS011;48391;49.184;2.418;2023-03-01T10:56:47;18.38;;;11.52;;
62353;SDS011;48391;49.184;2.418;2023-03-01T10:59:22;14.68;;;11.20;;
62353;SDS011;48391;49.184;2.418;2023-03-01T11:01:51;14.55;;;11.60;;
62353;SDS011;48391;49.184;2.418;2023-03-01T11:04:26;10.90;;;9.30;;
62353;SDS011;48391;49.184;2.418;2023-03-01T11:06:59;19.98;;;11.25;;
62353;SDS011;48391;49.184;2.418;2023-03-01T11:09:25;20.70;;;12.10;;
62353;SDS011;48391;49.184;2.418;2023-03-01T11:11:56;13.82;;;11.10;;
62353;SDS011;48391;49.184;2.418;2023-03-01T11:14:23;12.85;;;11.05;;
62353;SDS011;48391;49.184;2.418;2023-03-01T11:17:03;13.93;;;9.85;;
62353;SDS011;48391;49.184;2.418;2023-03-01T11:19:29;12.30;;;10.68;;
62353;SDS011;48391;49.184;2.418;2023-03-01T11:22:16;16.65;;;11.98;;
62353;SDS011;48391;49.184;2.418;2023-03-01T11:24:48;11.60;;;9.93;;
62353;SDS011;48391;49.184;2.418;2023-03-01T11:27:24;13.88;;;10.63;;
62353;SDS011;48391;49.184;2.418;2023-03-01T11:29:52;16.70;;;11.05;;
62353;SDS011;48391;49.184;2.418;2023-03-01T11:32:19;13.30;;;10.13;;
62353;SDS011;48391;49.184;2.418;2023-03-01T11:37:42;13.30;;;10.98;;
62353;SDS011;48391;49.184;2.418;2023-03-01T11:42:50;14.55;;;10.77;;
62353;SDS011;48391;49.184;2.418;2023-03-01T11:45:20;20.00;;;11.57;;
62353;SDS011;48391;49.184;2.418;2023-03-01T12:00:44;14.13;;;10.20;;
62353;SDS011;48391;49.184;2.418;2023-03-01T12:06:31;13.52;;;11.02;;
62353;SDS011;48391;49.184;2.418;2023-03-01T12:14:26;9.75;;;8.40;;
62353;SDS011;48391;49.184;2.418;2023-03-01T12:17:00;11.82;;;10.00;;
62353;SDS011;48391;49.184;2.418;2023-03-01T12:19:33;14.15;;;10.70;;
62353;SDS011;48391;49.184;2.418;2023-03-01T12:25:25;14.40;;;9.75;;
62353;SDS011;48391;49.184;2.418;2023-03-01T12:38:40;16.13;;;11.23;;
62353;SDS011;48391;49.184;2.418;2023-03-01T12:43:56;12.35;;;10.00;;
62353;SDS011;48391;49.184;2.418;2023-03-01T12:51:35;15.15;;;11.45;;
62353;SDS011;48391;49.184;2.418;2023-03-01T12:54:05;15.13;;;12.77;;
62353;SDS011;48391;49.184;2.418;2023-03-01T12:56:34;14.77;;;11.68;;
62353;SDS011;48391;49.184;2.418;2023-03-01T12:59:17;12.68;;;11.20;;
62353;SDS011;48391;49.184;2.418;2023-03-01T13:10:31;13.45;;;11.55;;
62353;SDS011;48391;49.184;2.418;2023-03-01T13:17:50;13.10;;;10.82;;
62353;SDS011;48391;49.184;2.418;2023-03-01T13:20:19;12.05;;;9.52;;
62353;SDS011;48391;49.184;2.418;2023-03-01T13:22:45;10.23;;;8.38;;
62353;SDS011;48391;49.184;2.418;2023-03-01T13:25:16;13.32;;;11.32;;
62353;SDS011;48391;49.184;2.418;2023-03-01T13:27:43;12.80;;;11.10;;
62353;SDS011;48391;49.184;2.418;2023-03-01T13:33:10;13.13;;;10.30;;
62353;SDS011;48391;49.184;2.418;2023-03-01T13:35:41;11.35;;;10.18;;
62353;SDS011;48391;49.184;2.418;2023-03-01T13:43:34;14.32;;;10.38;;
62353;SDS011;48391;49.184;2.418;2023-03-01T13:48:27;14.18;;;11.20;;
62353;SDS011;48391;49.184;2.418;2023-03-01T13:50:55;12.50;;;11.25;;
62353;SDS011;48391;49.184;2.418;2023-03-01T13:53:24;10.75;;;9.27;;
62353;SDS011;48391;49.184;2.418;2023-03-01T13:55:52;12.50;;;11.15;;
62353;SDS011;48391;49.184;2.418;2023-03-01T14:01:25;9.73;;;8.73;;
62353;SDS011;48391;49.184;2.418;2023-03-01T14:03:52;13.38;;;11.70;;
62353;SDS011;48391;49.184;2.418;2023-03-01T14:06:25;11.25;;;10.10;;
62353;SDS011;48391;49.184;2.418;2023-03-01T14:08:59;14.30;;;11.52;;
62353;SDS011;48391;49.184;2.418;2023-03-01T14:21:45;12.82;;;11.10;;
62353;SDS011;48391;49.184;2.418;2023-03-01T14:24:21;11.82;;;10.40;;
62353;SDS011;48391;49.184;2.418;2023-03-01T14:26:49;11.35;;;9.60;;
62353;SDS011;48391;49.184;2.418;2023-03-01T14:29:25;13.73;;;11.15;;
62353;SDS011;48391;49.184;2.418;2023-03-01T14:31:51;10.95;;;9.85;;
62353;SDS011;48391;49.184;2.418;2023-03-01T14:34:26;10.60;;;9.50;;
62353;SDS011;48391;49.184;2.418;2023-03-01T14:36:52;20.70;;;12.23;;
62353;SDS011;48391;49.184;2.418;2023-03-01T14:39:19;13.70;;;10.65;;
62353;SDS011;48391;49.184;2.418;2023-03-01T14:41:46;11.23;;;9.98;;
62353;SDS011;48391;49.184;2.418;2023-03-01T14:44:14;10.02;;;8.88;;
62353;SDS011;48391;49.184;2.418;2023-03-01T14:46:41;14.82;;;9.45;;
62353;SDS011;48391;49.184;2.418;2023-03-01T14:51:41;8.00;;;7.15;;
62353;SDS011;48391;49.184;2.418;2023-03-01T14:54:27;10.45;;;7.95;;
62353;SDS011;48391;49.184;2.418;2023-03-01T14:56:54;8.75;;;7.68;;
62353;SDS011;48391;49.184;2.418;2023-03-01T14:59:23;9.45;;;8.32;;
62353;SDS011;48391;49.184;2.418;2023-03-01T15:01:50;12.25;;;9.35;;
62353;SDS011;48391;49.184;2.418;2023-03-01T15:04:16;10.20;;;7.85;;
62353;SDS011;48391;49.184;2.418;2023-03-01T15:06:43;10.63;;;8.82;;
62353;SDS011;48391;49.184;2.418;2023-03-01T15:09:14;10.63;;;8.95;;
62353;SDS011;48391;49.184;2.418;2023-03-01T15:11:42;12.27;;;8.93;;
62353;SDS011;48391;49.184;2.418;2023-03-01T15:16:54;12.10;;;8.77;;
62353;SDS011;48391;49.184;2.418;2023-03-01T15:19:20;9.23;;;8.05;;
62353;SDS011;48391;49.184;2.418;2023-03-01T15:21:48;11.80;;;9.23;;
62353;SDS011;48391;49.184;2.418;2023-03-01T15:24:20;11.07;;;9.27;;
62353;SDS011;48391;49.184;2.418;2023-03-01T15:26:53;9.70;;;7.55;;
62353;SDS011;48391;49.184;2.418;2023-03-01T15:29:23;9.95;;;8.88;;
62353;SDS011;48391;49.184;2.418;2023-03-01T15:31:55;10.68;;;8.90;;
62353;SDS011;48391;49.184;2.418;2023-03-01T15:34:23;10.60;;;9.18;;
62353;SDS011;48391;49.184;2.418;2023-03-01T15:36:50;11.85;;;8.18;;
62353;SDS011;48391;49.184;2.418;2023-03-01T15:39:26;11.43;;;8.70;;
62353;SDS011;48391;49.184;2.418;2023-03-01T15:41:56;13.98;;;9.73;;
62353;SDS011;48391;49.184;2.418;2023-03-01T15:44:26;9.02;;;8.13;;
62353;SDS011;48391;49.184;2.418;2023-03-01T15:46:52;11.63;;;8.57;;
62353;SDS011;48391;49.184;2.418;2023-03-01T15:49:26;10.88;;;8.55;;
62353;SDS011;48391;49.184;2.418;2023-03-01T15:51:53;9.05;;;8.15;;
62353;SDS011;48391;49.184;2.418;2023-03-01T15:54:21;10.98;;;8.65;;
62353;SDS011;48391;49.184;2.418;2023-03-01T15:56:48;10.80;;;8.65;;
62353;SDS011;48391;49.184;2.418;2023-03-01T15:59:14;11.68;;;9.50;;
62353;SDS011;48391;49.184;2.418;2023-03-01T16:01:41;9.90;;;8.18;;
62353;SDS011;48391;49.184;2.418;2023-03-01T16:04:10;21.60;;;9.50;;
62353;SDS011;48391;49.184;2.418;2023-03-01T16:06:41;13.27;;;10.00;;
62353;SDS011;48391;49.184;2.418;2023-03-01T16:09:07;11.68;;;9.50;;
62353;SDS011;48391;49.184;2.418;2023-03-01T16:11:35;12.30;;;9.73;;
62353;SDS011;48391;49.184;2.418;2023-03-01T16:14:02;10.02;;;8.57;;
62353;SDS011;48391;49.184;2.418;2023-03-01T16:16:28;13.50;;;8.38;;
62353;SDS011;48391;49.184;2.418;2023-03-01T16:18:54;14.35;;;10.63;;
62353;SDS011;48391;49.184;2.418;2023-03-01T16:21:21;14.15;;;9.43;;
62353;SDS011;48391;49.184;2.418;2023-03-01T16:23:48;10.13;;;8.93;;
62353;SDS011;48391;49.184;2.418;2023-03-01T16:26:14;11.55;;;8.90;;
62353;SDS011;48391;49.184;2.418;2023-03-01T16:28:41;14.35;;;9.02;;
62353;SDS011;48391;49.184;2.418;2023-03-01T16:31:07;10.05;;;8.55;;
62353;SDS011;48391;49.184;2.418;2023-03-01T16:33:34;12.32;;;9.75;;
62353;SDS011;48391;49.184;2.418;2023-03-01T16:36:00;12.73;;;8.93;;
62353;SDS011;48391;49.184;2.418;2023-03-01T16:38:27;11.80;;;9.05;;
62353;SDS011;48391;49.184;2.418;2023-03-01T16:40:53;13.27;;;10.07;;
62353;SDS011;48391;49.184;2.418;2023-03-01T16:43:19;11.20;;;9.13;;
62353;SDS011;48391;49.184;2.418;2023-03-01T16:45:45;12.05;;;8.38;;
62353;SDS011;48391;49.184;2.418;2023-03-01T16:48:11;11.20;;;7.95;;
62353;SDS011;48391;49.184;2.418;2023-03-01T16:50:38;10.18;;;8.85;;
62353;SDS011;48391;49.184;2.418;2023-03-01T16:53:04;13.75;;;10.10;;
62353;SDS011;48391;49.184;2.418;2023-03-01T16:55:30;15.27;;;10.20;;
62353;SDS011;48391;49.184;2.418;2023-03-01T16:57:56;13.25;;;10.57;;
62353;SDS011;48391;49.184;2.418;2023-03-01T17:00:22;12.45;;;9.65;;
62353;SDS011;48391;49.184;2.418;2023-03-01T17:02:48;11.30;;;8.13;;
62353;SDS011;48391;49.184;2.418;2023-03-01T17:05:16;8.70;;;7.32;;
62353;SDS011;48391;49.184;2.418;2023-03-01T17:07:42;11.60;;;9.35;;